createdAt,value
2023-02-14T00:05:03.586Z,4.00
2023-02-14T00:10:07.798Z,4.00
2023-02-14T00:15:25.110Z,4.00
2023-02-14T00:20:29.109Z,4.00
2023-02-14T00:25:32.032Z,4.20
2023-02-14T00:30:37.203Z,4.20
2023-02-14T00:35:41.093Z,4.20
2023-02-14T00:40:43.999Z,3.90
2023-02-14T00:45:48.311Z,3.90
2023-02-14T00:51:05.471Z,3.90
2023-02-14T00:56:09.390Z,3.80
2023-02-14T01:01:14.812Z,3.50
2023-02-14T01:06:18.339Z,2.80
2023-02-14T01:11:23.801Z,2.70
2023-02-14T01:16:30.663Z,2.90
2023-02-14T01:21:34.755Z,3.10
2023-02-14T01:26:37.699Z,3.20
2023-02-14T01:31:42.070Z,3.40
2023-02-14T01:36:45.080Z,3.50
2023-02-14T01:41:49.739Z,3.50
2023-02-14T01:46:54.171Z,3.40
2023-02-14T01:52:04.289Z,3.50
2023-02-14T01:57:10.720Z,3.30
2023-02-14T02:02:23.436Z,3.30
2023-02-14T02:07:28.543Z,3.20
2023-02-14T02:12:35.694Z,3.20
2023-02-14T02:17:49.958Z,3.10
2023-02-14T02:23:26.299Z,2.90
2023-02-14T02:28:55.476Z,2.50
2023-02-14T02:34:30.429Z,1.70
2023-02-14T02:39:54.925Z,1.30
2023-02-14T02:45:12.180Z,1.80
2023-02-14T02:50:42.416Z,2.10
2023-02-14T02:56:11.786Z,2.30
2023-02-14T03:01:20.314Z,2.50
2023-02-14T03:06:25.446Z,2.50
2023-02-14T03:11:30.349Z,2.60
2023-02-14T03:16:49.777Z,2.60
2023-02-14T03:21:57.596Z,2.60
2023-02-14T03:27:07.177Z,2.60
2023-02-14T03:32:16.992Z,2.70
2023-02-14T03:37:27.384Z,2.70
2023-02-14T03:42:37.774Z,2.70
2023-02-14T03:47:44.133Z,2.70
2023-02-14T03:52:50.660Z,2.60
2023-02-14T03:58:02.232Z,2.50
2023-02-14T04:03:11.860Z,2.40
2023-02-14T04:08:22.402Z,2.50
2023-02-14T04:13:26.996Z,2.50
2023-02-14T04:18:47.443Z,2.50
2023-02-14T04:23:50.317Z,2.60
2023-02-14T04:28:54.549Z,2.60
2023-02-14T04:33:57.394Z,2.70
2023-02-14T04:39:00.214Z,2.80
2023-02-14T04:44:04.405Z,2.70
2023-02-14T04:49:07.319Z,2.70
2023-02-14T04:54:10.652Z,2.60
2023-02-14T04:59:15.223Z,2.40
2023-02-14T05:04:18.211Z,1.70
2023-02-14T05:09:21.173Z,1.60
2023-02-14T05:14:27.492Z,1.40
2023-02-14T05:19:30.398Z,2.00
2023-02-14T05:24:33.353Z,2.20
2023-02-14T05:29:37.584Z,2.30
2023-02-14T05:34:40.474Z,2.40
2023-02-14T05:39:43.341Z,2.60
2023-02-14T05:44:48.684Z,2.60
2023-02-14T05:49:51.547Z,2.60
2023-02-14T05:54:54.570Z,2.60
2023-02-14T05:59:58.805Z,2.60
2023-02-14T06:05:02.875Z,2.60
2023-02-14T06:10:09.756Z,2.50
2023-02-14T06:15:13.967Z,2.60
2023-02-14T06:20:16.758Z,2.40
2023-02-14T06:25:20.208Z,2.20
2023-02-14T06:30:24.864Z,1.90
2023-02-14T06:35:27.833Z,1.90
2023-02-14T06:40:30.796Z,1.60
2023-02-14T06:45:34.943Z,1.10
2023-02-14T06:50:38.098Z,1.60
2023-02-14T06:55:42.957Z,2.00
2023-02-14T07:00:48.298Z,2.20
2023-02-14T07:05:51.117Z,2.30
2023-02-14T07:10:57.192Z,2.50
2023-02-14T07:16:01.611Z,2.50
2023-02-14T07:21:04.695Z,1.90
2023-02-14T07:26:07.536Z,2.00
2023-02-14T07:31:11.875Z,2.20
2023-02-14T07:36:14.788Z,2.30
2023-02-14T07:41:17.585Z,2.40
2023-02-14T07:46:21.778Z,2.40
2023-02-14T07:51:24.656Z,2.50
2023-02-14T07:56:27.614Z,2.40
2023-02-14T08:01:31.840Z,2.50
2023-02-14T08:06:34.977Z,2.50
2023-02-14T08:11:55.379Z,2.60
2023-02-14T08:16:59.539Z,2.40
2023-02-14T08:22:02.397Z,2.60
2023-02-14T08:27:05.433Z,2.70
2023-02-14T08:32:09.694Z,2.70
2023-02-14T08:37:12.597Z,2.70
2023-02-14T08:42:15.426Z,2.70
2023-02-14T08:47:19.613Z,2.30
2023-02-14T08:52:22.499Z,2.00
2023-02-14T08:57:27.739Z,2.30
2023-02-14T09:02:31.955Z,2.20
2023-02-14T09:07:34.871Z,2.10
2023-02-14T09:12:40.145Z,2.40
2023-02-14T09:17:44.409Z,2.30
2023-02-14T09:22:48.817Z,2.50
2023-02-14T09:27:51.824Z,2.30
2023-02-14T09:32:56.091Z,2.30
2023-02-14T09:38:16.554Z,2.30
2023-02-14T09:43:24.469Z,2.50
2023-02-14T09:48:33.390Z,2.50
2023-02-14T09:53:40.589Z,2.70
2023-02-14T09:58:50.845Z,2.60
2023-02-14T10:04:17.133Z,2.60
2023-02-14T10:09:41.187Z,2.30
2023-02-14T10:14:44.615Z,2.60
2023-02-14T10:19:53.129Z,2.60
2023-02-14T10:25:01.197Z,2.60
2023-02-14T10:30:13.912Z,2.30
2023-02-14T10:35:30.793Z,2.30
2023-02-14T10:40:46.061Z,2.60
2023-02-14T10:45:56.513Z,2.60
2023-02-14T10:51:07.714Z,2.80
2023-02-14T10:56:20.017Z,3.00
2023-02-14T11:01:23.469Z,2.80
2023-02-14T11:06:28.076Z,2.90
2023-02-14T11:11:36.562Z,3.00
2023-02-14T11:16:39.871Z,3.10
2023-02-14T11:21:46.877Z,3.20
2023-02-14T11:26:52.904Z,3.20
2023-02-14T11:31:56.582Z,3.10
2023-02-14T11:37:01.657Z,3.20
2023-02-14T11:42:06.544Z,3.30
2023-02-14T11:47:41.436Z,3.40
2023-02-14T11:52:51.927Z,3.00
2023-02-14T11:57:55.930Z,3.20
2023-02-14T12:03:00.731Z,3.00
2023-02-14T12:08:08.066Z,3.20
2023-02-14T12:13:25.026Z,3.20
2023-02-14T12:18:48.012Z,3.00
2023-02-14T12:24:01.385Z,3.40
2023-02-14T12:29:14.101Z,3.60
2023-02-14T12:34:18.900Z,3.60
2023-02-14T12:39:33.849Z,3.70
2023-02-14T12:44:44.835Z,3.60
2023-02-14T12:50:19.086Z,4.20
2023-02-14T12:55:41.695Z,3.80
2023-02-14T13:00:54.214Z,3.50
2023-02-14T13:06:05.589Z,3.70
2023-02-14T13:11:18.779Z,3.50
2023-02-14T13:16:27.735Z,3.50
2023-02-14T13:21:35.118Z,3.60
2023-02-14T13:26:41.374Z,3.50
2023-02-14T13:31:44.496Z,3.70
2023-02-14T13:36:48.077Z,3.40
2023-02-14T13:41:52.274Z,3.70
2023-02-14T13:46:55.183Z,3.60
2023-02-14T13:52:01.111Z,3.50
2023-02-14T13:57:27.960Z,3.70
2023-02-14T14:02:33.813Z,3.60
2023-02-14T14:07:36.901Z,3.60
2023-02-14T14:12:43.549Z,3.80
2023-02-14T14:17:50.248Z,3.70
2023-02-14T14:22:56.171Z,3.60
2023-02-14T14:28:01.101Z,3.50
2023-02-14T14:33:14.801Z,3.50
2023-02-14T14:38:17.647Z,3.60
2023-02-14T14:43:27.956Z,3.80
2023-02-14T14:48:33.294Z,3.70
2023-02-14T14:53:44.375Z,3.80
2023-02-14T14:58:48.772Z,3.70
2023-02-14T15:03:51.720Z,3.60
2023-02-14T15:08:54.819Z,3.50
2023-02-14T15:13:59.047Z,3.60
2023-02-14T15:19:08.069Z,3.80
2023-02-14T15:24:16.108Z,3.70
2023-02-14T15:29:25.992Z,3.70
2023-02-14T15:34:31.718Z,3.70
2023-02-14T15:39:38.999Z,3.80
2023-02-14T15:44:43.314Z,3.80
2023-02-14T15:49:47.461Z,3.90
2023-02-14T15:54:50.485Z,3.80
2023-02-14T15:59:56.274Z,3.70
2023-02-14T16:05:08.919Z,3.80
2023-02-14T16:10:22.850Z,3.80
2023-02-14T16:15:29.104Z,3.80
2023-02-14T16:20:43.489Z,3.80
2023-02-14T16:25:46.809Z,3.90
2023-02-14T16:30:57.644Z,3.90
2023-02-14T16:36:06.414Z,3.90
2023-02-14T16:41:17.090Z,3.90
2023-02-14T16:46:24.482Z,3.90
2023-02-14T16:51:37.122Z,3.90
2023-02-14T16:56:44.028Z,3.90
2023-02-14T17:01:48.779Z,3.90
2023-02-14T17:06:54.681Z,3.80
2023-02-14T17:12:02.617Z,3.90
2023-02-14T17:17:06.879Z,3.90
2023-02-14T17:22:10.300Z,3.80
2023-02-14T17:27:13.104Z,3.90
2023-02-14T17:32:17.407Z,3.80
2023-02-14T17:37:20.431Z,3.90
2023-02-14T17:42:23.593Z,3.90
2023-02-14T17:47:27.976Z,3.90
2023-02-14T17:52:31.141Z,3.90
2023-02-14T17:57:34.112Z,4.00
2023-02-14T18:02:38.558Z,4.00
2023-02-14T18:07:43.080Z,4.00
2023-02-14T18:12:45.996Z,4.00
2023-02-14T18:17:51.496Z,3.90
2023-02-14T18:22:54.319Z,3.90
2023-02-14T18:28:04.520Z,3.90
2023-02-14T18:33:08.741Z,3.90
2023-02-14T18:38:12.501Z,3.90
2023-02-14T18:43:17.412Z,4.00
2023-02-14T18:48:21.606Z,3.90
2023-02-14T18:53:24.775Z,3.60
2023-02-14T18:58:27.787Z,3.70
2023-02-14T19:03:33.462Z,3.80
2023-02-14T19:08:40.086Z,4.30
2023-02-14T19:13:46.028Z,4.70
2023-02-14T19:18:50.979Z,4.50
2023-02-14T19:23:57.067Z,4.40
2023-02-14T19:29:01.897Z,4.30
2023-02-14T19:34:08.387Z,4.30
2023-02-14T19:39:12.462Z,4.20
2023-02-14T19:44:17.939Z,4.10
2023-02-14T19:49:22.803Z,4.00
2023-02-14T19:54:26.504Z,4.00
2023-02-14T19:59:32.433Z,4.00
2023-02-14T20:04:37.016Z,4.00
2023-02-14T20:09:39.821Z,3.90
2023-02-14T20:14:51.250Z,3.80
2023-02-14T20:19:56.318Z,3.80
2023-02-14T20:25:02.317Z,3.80
2023-02-14T20:30:06.310Z,3.70
2023-02-14T20:35:10.787Z,4.10
2023-02-14T20:40:13.957Z,3.40
2023-02-14T20:45:17.192Z,3.40
2023-02-14T20:50:21.351Z,3.70
2023-02-14T20:55:24.178Z,3.80
2023-02-14T21:00:27.863Z,3.90
2023-02-14T21:05:32.227Z,3.80
2023-02-14T21:10:35.263Z,3.70
2023-02-14T21:15:40.197Z,3.70
2023-02-14T21:20:44.577Z,3.70
2023-02-14T21:25:47.426Z,3.70
2023-02-14T21:30:50.362Z,3.60
2023-02-14T21:35:55.192Z,3.60
2023-02-14T21:41:04.226Z,3.60
2023-02-14T21:46:08.367Z,3.70
2023-02-14T21:51:12.549Z,3.60
2023-02-14T21:56:19.598Z,3.50
2023-02-14T22:01:24.607Z,3.50
2023-02-14T22:06:29.403Z,3.60
2023-02-14T22:11:32.444Z,3.60
2023-02-14T22:16:38.136Z,3.50
2023-02-14T22:21:43.466Z,3.40
2023-02-14T22:26:46.324Z,3.50
2023-02-14T22:31:49.243Z,3.50
2023-02-14T22:36:53.467Z,3.40
2023-02-14T22:41:56.367Z,3.50
2023-02-14T22:46:59.230Z,3.40
2023-02-14T22:52:03.411Z,3.40
2023-02-14T22:57:06.301Z,3.40
2023-02-14T23:02:11.045Z,3.40
2023-02-14T23:07:15.200Z,3.40
2023-02-14T23:12:35.868Z,3.40
2023-02-14T23:17:56.379Z,3.30
2023-02-14T23:23:00.552Z,3.20
2023-02-14T23:28:03.396Z,3.20
2023-02-14T23:33:06.280Z,3.10
2023-02-14T23:38:10.715Z,3.20
2023-02-14T23:43:13.567Z,3.20
2023-02-14T23:48:16.402Z,3.20
2023-02-14T23:53:20.556Z,3.00
2023-02-14T23:58:23.413Z,3.10
